Grant Township, Minnesota
Current Conditions -  °F | °C
As of 12:11 AM on Sunday 26 Oct 2014 (Local Time) from K21D Reporting Station
Clear Clear  
Wind Chill: 34°   Ceiling: Unl
Heat Index: 34°   Visibility: 10mi
Dew Point: 28°   Wind: 0mph
Humidity: 81%   Direction: NA
Pressure: 30.06"   Gusts: NA
Location:  45.051°N, 92.9612°W
Report Text: K21D 260511Z AUTO 00000KT 10SM CLR 01/M02 A3006 RMK AO2
Loading
Personal Weather Stations






























Interactive Weather Map
Tropical Storm Tracking
New forecast layout! Learn more

10-Day Weather Forecast

Advertisements
Track Severe Weather on mobile